Terminal Aerodrome Forecast
Issued by NWS St Louis, MO

Home | Current Version | Previous Version | Text Only | Print | Product List | Glossary Off
Versions: 1 2 3 4 5 6 7 8 9 10 11 12 13 14 15 16 17 18 19 20 21 22 23 24 25

000
FTUS43 KLSX 032300
TAFSTL
TAF
KSTL 032334Z 0400/0506 19012G20KT P6SM SCT100 BKN250
     FM040100 19008KT P6SM SCT120 BKN250
     FM041500 21012G20KT P6SM SCT150 BKN250=

USA.gov is the U.S. government's official web portal to all federal, state and local government web resources and services.